Time;durP1;ratioP1;P1;durP2;ratioP2;P2;SDS_P1;SDS_P2;PMS_P1;PMS_P2;Temp;Humidity;BMP_temperature;BMP_pressure;BME280_temperature;BME280_humidity;BME280_pressure;Samples;Min_cycle;Max_cycle;Signal;HPM_P1;HPM_P2
2021/11/08 00:01:02;;;;;;;16.38;9.05;;;6.20;99.90;;;;;;5032134;28;20115;-87
2021/11/08 00:03:32;;;;;;;16.95;8.98;;;6.20;99.90;;;;;;5032735;28;20021;-86
2021/11/08 00:06:01;;;;;;;15.98;9.55;;;7.10;99.90;;;;;;5033228;28;20397;-88
2021/11/08 00:08:28;;;;;;;15.88;9.18;;;6.10;99.90;;;;;;5033069;28;20080;-84
2021/11/08 00:10:54;;;;;;;15.10;9.43;;;6.60;99.90;;;;;;5032380;28;20049;-88
2021/11/08 00:13:20;;;;;;;17.20;8.82;;;6.00;99.90;;;;;;5051263;28;20029;-89
2021/11/08 00:21:30;;;;;;;16.67;9.25;;;6.00;99.90;;;;;;5015516;28;20113;-88
2021/11/08 00:23:56;;;;;;;18.48;8.25;;;5.90;99.90;;;;;;5014807;28;20077;-88
2021/11/08 00:26:21;;;;;;;15.05;9.15;;;6.30;99.90;;;;;;5028137;28;20021;-87
2021/11/08 00:28:47;;;;;;;16.80;9.18;;;5.90;99.90;;;;;;5039104;28;20025;-88
2021/11/08 00:31:13;;;;;;;17.13;9.10;;;5.90;99.90;;;;;;5039100;28;20123;-87
2021/11/08 00:33:39;;;;;;;14.18;8.32;;;6.20;99.90;;;;;;5039276;28;20024;-87
2021/11/08 00:36:05;;;;;;;17.05;9.73;;;5.80;99.90;;;;;;5038915;28;20058;-86
2021/11/08 00:38:31;;;;;;;15.82;8.65;;;5.80;99.90;;;;;;5038482;28;20056;-85
2021/11/08 00:40:58;;;;;;;13.65;8.40;;;7.60;99.90;;;;;;5039206;28;20047;-88
2021/11/08 00:43:25;;;;;;;15.82;7.75;;;7.10;99.90;;;;;;5038628;28;20036;-88
2021/11/08 00:45:51;;;;;;;16.10;9.00;;;5.80;99.90;;;;;;5038389;28;20114;-88
2021/11/08 00:48:21;;;;;;;18.70;9.05;;;5.80;99.90;;;;;;5039290;28;20028;-88
2021/11/08 00:50:49;;;;;;;13.63;7.90;;;6.00;99.90;;;;;;5039220;28;20079;-88
2021/11/08 00:53:16;;;;;;;14.80;9.50;;;5.80;99.90;;;;;;5038718;28;20041;-88
2021/11/08 00:55:42;;;;;;;13.80;8.15;;;5.90;99.90;;;;;;5038218;28;20496;-84
2021/11/08 00:58:16;;;;;;;12.38;8.18;;;5.70;99.90;;;;;;5038651;28;20021;-87
2021/11/08 01:00:41;;;;;;;15.57;7.50;;;5.70;99.90;;;;;;5038535;28;20033;-86
2021/11/08 01:03:08;;;;;;;14.77;7.57;;;6.40;99.90;;;;;;5038856;28;20481;-87
2021/11/08 01:05:34;;;;;;;16.70;7.75;;;6.00;99.90;;;;;;5038302;28;20025;-88
2021/11/08 01:08:01;;;;;;;19.58;9.52;;;5.80;99.90;;;;;;5038343;28;20116;-86
2021/11/08 01:10:27;;;;;;;13.85;7.93;;;6.40;99.90;;;;;;5039301;28;20029;-86
2021/11/08 01:12:53;;;;;;;15.13;7.95;;;5.60;99.90;;;;;;5038712;28;20025;-88
2021/11/08 01:15:20;;;;;;;13.60;8.02;;;5.40;99.90;;;;;;5039017;28;20021;-87
2021/11/08 01:17:46;;;;;;;15.50;7.88;;;5.30;99.90;;;;;;5039129;28;20025;-84
2021/11/08 01:20:12;;;;;;;14.38;8.07;;;5.20;99.90;;;;;;5039051;28;20486;-87
2021/11/08 01:22:39;;;;;;;14.48;8.20;;;7.00;99.90;;;;;;5039205;28;20036;-85
2021/11/08 01:25:06;;;;;;;17.50;8.75;;;5.20;99.90;;;;;;5039491;28;20029;-86
2021/11/08 01:27:40;;;;;;;13.73;7.85;;;5.10;99.90;;;;;;5040041;28;20113;-86
2021/11/08 01:30:25;;;;;;;14.05;7.82;;;6.90;99.90;;;;;;5038941;28;20045;-86
2021/11/08 01:32:56;;;;;;;15.32;7.18;;;5.70;99.90;;;;;;5038569;28;20032;-84
2021/11/08 01:35:30;;;;;;;12.68;7.72;;;6.30;99.90;;;;;;5038567;28;20029;-88
2021/11/08 01:38:12;;;;;;;16.73;7.97;;;5.70;99.90;;;;;;5038238;28;20028;-89
2021/11/08 01:40:40;;;;;;;14.02;7.80;;;5.00;99.90;;;;;;5038788;28;20028;-88
2021/11/08 01:43:07;;;;;;;16.23;8.85;;;5.10;99.90;;;;;;5038327;28;20017;-88
2021/11/08 01:45:34;;;;;;;13.63;8.10;;;5.00;99.90;;;;;;5038616;28;20021;-87
2021/11/08 01:48:00;;;;;;;15.13;8.13;;;6.10;99.90;;;;;;5039501;28;20028;-88
2021/11/08 01:50:27;;;;;;;16.20;8.82;;;6.50;99.90;;;;;;5039732;28;20029;-87
2021/11/08 01:52:53;;;;;;;16.77;9.27;;;6.90;99.90;;;;;;5040039;28;20067;-88
2021/11/08 01:55:23;;;;;;;22.52;9.88;;;6.20;99.90;;;;;;5041378;28;20558;-87
2021/11/08 01:57:50;;;;;;;16.95;9.85;;;4.80;99.90;;;;;;5041611;28;20408;-87
2021/11/08 02:00:17;;;;;;;21.73;10.27;;;4.80;99.90;;;;;;5043282;28;20507;-87
2021/11/08 02:02:43;;;;;;;35.60;11.45;;;6.20;99.90;;;;;;5050422;28;20084;-89
2021/11/08 02:05:10;;;;;;;18.92;10.07;;;6.50;99.90;;;;;;5061036;28;20070;-89
2021/11/08 02:07:36;;;;;;;23.02;10.70;;;4.70;99.90;;;;;;5061092;28;20029;-88
2021/11/08 02:10:05;;;;;;;20.70;10.35;;;4.60;99.90;;;;;;5061162;28;20059;-88
2021/11/08 02:12:32;;;;;;;18.13;9.95;;;4.60;99.90;;;;;;5061042;28;20020;-90
2021/11/08 02:14:59;;;;;;;19.63;10.15;;;4.50;99.90;;;;;;5060566;28;20096;-88
2021/11/08 02:17:26;;;;;;;41.55;10.40;;;5.50;99.90;;;;;;5060193;28;20079;-88
2021/11/08 02:20:13;;;;;;;21.27;9.80;;;4.60;99.90;;;;;;5059146;28;20282;-86
2021/11/08 02:22:39;;;;;;;14.98;9.07;;;4.20;99.90;;;;;;5058976;28;20033;-88
2021/11/08 02:25:06;;;;;;;32.75;9.60;;;6.40;99.90;;;;;;5057317;28;20025;-89
2021/11/08 02:27:31;;;;;;;21.30;8.70;;;4.50;99.90;;;;;;5058481;28;20037;-88
2021/11/08 02:29:57;;;;;;;52.97;8.98;;;4.70;99.90;;;;;;5048125;28;20352;-84
2021/11/08 02:32:28;;;;;;;13.48;7.43;;;4.60;99.90;;;;;;5037487;28;20067;-87
2021/11/08 02:34:54;;;;;;;;;;;4.10;99.90;;;;;;5036907;28;20053;-87
2021/11/08 02:37:20;;;;;;;14.45;7.15;;;4.40;99.90;;;;;;5036694;28;19912;-88
2021/11/08 02:39:49;;;;;;;16.40;8.10;;;4.40;99.90;;;;;;5036018;28;20051;-88
2021/11/08 02:42:14;;;;;;;19.85;7.65;;;4.40;99.90;;;;;;5036435;28;20029;-88
2021/11/08 02:44:40;;;;;;;18.02;7.50;;;6.20;99.90;;;;;;5036211;28;20040;-87
2021/11/08 02:47:06;;;;;;;43.97;9.15;;;5.70;99.90;;;;;;5036547;28;20081;-84
2021/11/08 02:49:35;;;;;;;42.88;9.52;;;4.30;99.90;;;;;;5036567;28;20051;-87
2021/11/08 02:52:04;;;;;;;47.03;8.90;;;4.00;99.90;;;;;;5036100;28;20029;-87
2021/11/08 02:54:41;;;;;;;23.00;9.02;;;4.30;99.90;;;;;;5036214;28;20029;-87
2021/11/08 02:57:07;;;;;;;17.13;8.45;;;6.10;99.90;;;;;;5036323;28;20079;-87
2021/11/08 02:59:36;;;;;;;51.28;9.52;;;4.30;99.90;;;;;;5036242;28;20029;-88
2021/11/08 03:02:07;;;;;;;33.17;8.40;;;4.30;99.90;;;;;;5041044;28;20480;-86
2021/11/08 03:04:44;;;;;;;50.85;8.52;;;2.70;99.90;;;;;;5044202;28;20045;-87
2021/11/08 03:07:11;;;;;;;40.47;8.98;;;4.30;99.90;;;;;;5037744;28;20115;-86
2021/11/08 03:09:48;;;;;;;32.65;8.80;;;4.10;99.90;;;;;;5038170;28;20033;-87
2021/11/08 03:12:17;;;;;;;63.42;9.07;;;4.10;99.90;;;;;;5037212;28;20033;-87
2021/11/08 03:14:55;;;;;;;64.93;9.15;;;4.00;99.90;;;;;;5037596;28;20029;-87
2021/11/08 03:17:24;;;;;;;26.70;7.63;;;5.10;99.90;;;;;;5036864;28;20477;-85
2021/11/08 03:19:50;;;;;;;24.00;7.60;;;6.20;99.90;;;;;;5036891;28;20032;-85
2021/11/08 03:22:19;;;;;;;44.17;7.38;;;4.70;99.90;;;;;;5037090;28;20029;-88
2021/11/08 03:25:09;;;;;;;85.72;8.65;;;5.40;99.90;;;;;;5036095;28;20028;-88
2021/11/08 03:27:50;;;;;;;99.88;10.35;;;3.90;99.90;;;;;;5054377;28;20470;-87
2021/11/08 03:30:20;;;;;;;54.13;9.55;;;5.30;99.90;;;;;;5036562;28;20076;-87
2021/11/08 03:32:48;;;;;;;62.03;8.90;;;6.30;99.90;;;;;;5037032;28;20036;-88
2021/11/08 03:35:19;;;;;;;46.20;8.48;;;3.90;99.90;;;;;;5037094;28;20102;-87
2021/11/08 03:37:45;;;;;;;114.80;9.73;;;3.80;99.90;;;;;;5037476;28;20119;-87
2021/11/08 03:40:33;;;;;;;25.00;7.72;;;3.80;99.90;;;;;;5037072;28;20040;-88
2021/11/08 03:43:01;;;;;;;32.20;8.63;;;3.80;99.90;;;;;;5036256;28;20031;-87
2021/11/08 03:45:29;;;;;;;58.70;9.85;;;3.80;99.90;;;;;;5037177;28;20028;-87
2021/11/08 03:47:56;;;;;;;73.25;8.68;;;3.80;99.90;;;;;;5036503;28;20440;-85
2021/11/08 03:50:22;;;;;;;47.17;8.43;;;;;;;;;;5037480;28;20025;-87
2021/11/08 03:52:58;;;;;;;32.95;7.78;;;3.80;99.90;;;;;;5058119;28;20053;-88
2021/11/08 03:55:25;;;;;;;38.97;7.65;;;5.70;99.90;;;;;;5040135;28;20537;-89
2021/11/08 03:57:52;;;;;;;32.53;7.60;;;6.30;99.90;;;;;;5039630;28;20029;-88
2021/11/08 04:00:21;;;;;;;17.65;7.32;;;5.20;99.90;;;;;;5039808;28;20056;-86
2021/11/08 04:02:48;;;;;;;31.30;8.38;;;;;;;;;;5040149;28;20032;-88
2021/11/08 04:05:15;;;;;;;40.03;7.32;;;3.90;99.90;;;;;;5039896;28;20116;-88
2021/11/08 04:07:42;;;;;;;21.10;7.00;;;4.90;99.90;;;;;;5039828;28;20025;-89
2021/11/08 04:10:10;;;;;;;26.40;7.28;;;5.30;99.90;;;;;;5040260;28;20120;-84
2021/11/08 04:12:37;;;;;;;37.25;7.25;;;3.90;99.90;;;;;;5040128;28;20017;-87
2021/11/08 04:15:08;;;;;;;25.13;6.85;;;3.80;99.90;;;;;;5040210;28;20021;-88
2021/11/08 04:17:35;;;;;;;39.85;7.30;;;3.90;99.90;;;;;;5039513;28;20052;-88
2021/11/08 04:20:03;;;;;;;23.05;6.63;;;5.40;99.90;;;;;;5039607;28;20029;-87
2021/11/08 04:22:29;;;;;;;28.05;6.22;;;3.90;99.90;;;;;;5040081;28;20048;-89
2021/11/08 04:24:56;;;;;;;77.05;8.20;;;;;;;;;;5039713;28;20398;-87
2021/11/08 04:27:22;;;;;;;39.95;7.00;;;;;;;;;;5039674;28;20025;-88
2021/11/08 04:29:48;;;;;;;17.17;6.35;;;3.70;99.90;;;;;;5039542;28;20028;-88
2021/11/08 04:32:14;;;;;;;28.98;6.75;;;6.20;99.90;;;;;;5038926;28;20119;-89
2021/11/08 04:34:46;;;;;;;42.85;7.32;;;3.70;99.90;;;;;;5039941;28;20060;-86
2021/11/08 04:40:05;;;;;;;20.38;5.55;;;4.60;99.90;;;;;;5056977;28;20494;-88
2021/11/08 04:48:09;;;;;;;52.15;7.13;;;4.00;99.90;;;;;;5037914;28;20021;-87
2021/11/08 04:50:57;;;;;;;31.25;7.32;;;4.90;99.90;;;;;;5019957;28;20095;-86
2021/11/08 04:53:36;;;;;;;71.75;7.70;;;3.70;99.90;;;;;;5020173;28;20029;-87
2021/11/08 05:21:00;;;;;;;47.53;6.50;;;3.60;99.90;;;;;;5038156;28;20072;-84
2021/11/08 05:21:05;;;;;;;34.33;6.53;;;3.70;99.90;;;;;;5036611;28;20037;-85
2021/11/08 05:21:18;;;;;;;31.17;7.60;;;3.70;99.90;;;;;;5036862;28;20112;-87
2021/11/08 05:31:46;;;;;;;36.88;6.05;;;3.60;99.90;;;;;;5037096;28;20026;-88
2021/11/08 05:34:12;;;;;;;31.42;6.75;;;3.60;99.90;;;;;;5035917;28;20029;-90
2021/11/08 05:36:38;;;;;;;49.67;7.93;;;3.60;99.90;;;;;;5034850;28;20075;-84
2021/11/08 05:39:05;;;;;;;84.70;8.30;;;3.60;99.90;;;;;;5035537;28;20555;-85
2021/11/08 05:41:32;;;;;;;105.78;10.23;;;3.60;99.90;;;;;;5035325;28;20025;-84
2021/11/08 05:43:58;;;;;;;54.97;8.68;;;3.50;99.90;;;;;;5035385;28;20021;-86
2021/11/08 05:46:24;;;;;;;29.10;8.25;;;3.50;99.90;;;;;;5035161;28;20040;-87
2021/11/08 05:48:50;;;;;;;40.15;7.30;;;5.00;99.90;;;;;;5034444;28;20025;-87
2021/11/08 05:51:16;;;;;;;25.90;7.13;;;3.60;99.90;;;;;;5034529;28;20035;-87
2021/11/08 05:53:44;;;;;;;29.50;6.78;;;3.60;99.90;;;;;;5033996;28;20029;-86
2021/11/08 05:56:18;;;;;;;34.33;7.32;;;3.60;99.90;;;;;;5055651;28;20089;-87
2021/11/08 06:50:57;;;;;;;53.88;8.32;;;;;;;;;;5005349;28;20029;-85
2021/11/08 06:53:23;;;;;;;80.28;8.88;;;;;;;;;;5041482;28;20253;-82
2021/11/08 06:55:53;;;;;;;32.33;8.25;;;3.10;99.90;;;;;;5033711;28;20025;-84
2021/11/08 06:58:22;;;;;;;32.53;8.48;;;3.30;99.90;;;;;;5032965;28;20454;-81
2021/11/08 07:00:49;;;;;;;38.55;9.32;;;3.70;99.90;;;;;;5027762;28;20068;-87
2021/11/08 07:03:16;;;;;;;67.40;10.00;;;;;;;;;;5034867;28;20036;-85
2021/11/08 07:05:42;;;;;;;35.25;8.00;;;;;;;;;;5049018;28;20026;-84
2021/11/08 07:08:10;;;;;;;95.43;10.90;;;3.20;99.90;;;;;;5030585;28;20026;-82
2021/11/08 07:10:36;;;;;;;46.33;9.68;;;3.10;99.90;;;;;;5031788;28;20116;-81
2021/11/08 07:13:03;;;;;;;74.05;10.27;;;3.00;99.90;;;;;;5034867;28;20028;-84
2021/11/08 07:15:29;;;;;;;18.15;7.75;;;2.90;99.90;;;;;;5029763;28;20123;-84
2021/11/08 07:17:56;;;;;;;22.38;7.78;;;3.10;99.90;;;;;;5031638;28;20032;-82
2021/11/08 07:20:23;;;;;;;14.93;7.45;;;3.30;99.90;;;;;;5026715;28;20302;-86
2021/11/08 07:22:49;;;;;;;16.27;6.63;;;4.00;99.90;;;;;;5044970;28;20393;-86
2021/11/08 07:25:15;;;;;;;10.77;5.70;;;;;;;;;;5048119;28;20033;-86
2021/11/08 07:27:41;;;;;;;39.80;7.18;;;3.40;99.90;;;;;;5043619;28;20029;-86
2021/11/08 07:30:11;;;;;;;37.47;6.57;;;3.40;99.90;;;;;;5040756;28;20029;-84
2021/11/08 07:32:37;;;;;;;25.45;7.25;;;3.20;99.90;;;;;;5037088;28;20053;-83
2021/11/08 07:35:03;;;;;;;13.98;7.40;;;3.20;99.90;;;;;;5037901;28;20494;-84
2021/11/08 07:37:29;;;;;;;48.92;7.93;;;3.20;99.90;;;;;;5036738;28;20025;-84
2021/11/08 07:39:54;;;;;;;25.90;7.53;;;3.20;99.90;;;;;;5032859;28;20025;-84
2021/11/08 07:42:20;;;;;;;47.08;8.38;;;3.70;99.90;;;;;;5042062;28;20028;-84
2021/11/08 07:44:46;;;;;;;19.80;8.13;;;;;;;;;;5037077;28;20033;-83
2021/11/08 07:47:13;;;;;;;29.63;9.45;;;3.30;99.90;;;;;;5057544;28;20021;-85
2021/11/08 07:49:38;;;;;;;40.10;8.48;;;4.60;99.90;;;;;;5054963;28;20481;-81
2021/11/08 07:52:05;;;;;;;47.20;11.32;;;5.30;99.90;;;;;;5050703;28;20040;-84
2021/11/08 07:54:32;;;;;;;39.50;11.10;;;3.20;99.90;;;;;;5053547;28;20033;-84
2021/11/08 07:57:01;;;;;;;32.47;8.50;;;3.30;99.90;;;;;;5034674;28;20033;-85
2021/11/08 07:59:27;;;;;;;31.02;9.77;;;3.30;99.90;;;;;;5035703;28;20035;-86
2021/11/08 08:01:53;;;;;;;28.10;8.85;;;3.40;99.90;;;;;;5032865;28;20036;-84
2021/11/08 08:04:19;;;;;;;28.52;9.95;;;4.30;99.90;;;;;;5036132;28;20029;-83
2021/11/08 08:06:48;;;;;;;27.88;9.93;;;3.50;99.90;;;;;;5048498;28;20044;-80
2021/11/08 08:09:14;;;;;;;36.83;9.73;;;;;;;;;;5036446;28;20473;-83
2021/11/08 08:11:40;;;;;;;39.03;10.07;;;;;;;;;;5049544;28;20037;-82
2021/11/08 08:14:06;;;;;;;25.73;9.88;;;3.50;99.90;;;;;;5029671;28;20075;-82
2021/11/08 08:16:32;;;;;;;29.80;9.75;;;3.60;99.90;;;;;;5040813;28;20029;-82
2021/11/08 08:18:57;;;;;;;33.03;9.25;;;3.60;99.90;;;;;;5034589;28;20037;-80
2021/11/08 08:21:24;;;;;;;27.58;9.20;;;;;;;;;;5034593;28;20044;-85
2021/11/08 08:23:55;;;;;;;40.83;11.05;;;3.80;99.90;;;;;;5032008;28;20041;-84
2021/11/08 08:26:24;;;;;;;40.33;10.30;;;3.80;99.90;;;;;;5036451;28;20028;-89
2021/11/08 08:28:51;;;;;;;21.02;9.15;;;3.80;99.90;;;;;;5066876;28;20087;-81
2021/11/08 08:31:17;;;;;;;29.30;9.38;;;3.80;99.90;;;;;;5050979;28;20021;-86
2021/11/08 08:33:42;;;;;;;28.05;8.15;;;3.80;99.90;;;;;;5055432;28;20039;-85
2021/11/08 08:36:08;;;;;;;66.13;9.38;;;3.80;99.90;;;;;;5066338;28;20092;-83
2021/11/08 08:38:34;;;;;;;108.70;10.13;;;3.80;99.90;;;;;;5026740;28;20029;-83
2021/11/08 08:41:00;;;;;;;49.92;7.57;;;3.70;99.90;;;;;;5030955;28;20033;-81
2021/11/08 08:43:28;;;;;;;54.17;7.60;;;3.80;99.90;;;;;;5047589;28;20025;-84
2021/11/08 08:45:55;;;;;;;66.75;9.05;;;3.80;99.90;;;;;;5029916;28;20076;-84
2021/11/08 08:48:21;;;;;;;27.17;6.85;;;3.70;99.90;;;;;;5045545;28;20029;-83
2021/11/08 08:50:47;;;;;;;21.30;6.22;;;;;;;;;;5038731;28;20036;-86
2021/11/08 08:53:14;;;;;;;18.00;7.30;;;;;;;;;;5031107;28;20063;-84
2021/11/08 08:55:41;;;;;;;15.52;7.57;;;4.00;99.90;;;;;;5023842;28;20029;-88
2021/11/08 08:58:07;;;;;;;19.52;7.10;;;;;;;;;;5028571;28;20500;-87
2021/11/08 09:00:36;;;;;;;39.15;8.05;;;4.00;99.90;;;;;;5048431;22;20038;-81
2021/11/08 09:03:03;;;;;;;25.50;8.18;;;4.00;99.90;;;;;;5028210;28;20033;-81
2021/11/08 09:05:29;;;;;;;17.58;8.32;;;;;;;;;;5030426;28;20025;-81
2021/11/08 09:07:56;;;;;;;19.05;8.15;;;;;;;;;;5010755;28;20125;-84
2021/11/08 09:10:25;;;;;;;17.38;7.95;;;4.20;99.90;;;;;;5008602;28;20097;-86
2021/11/08 09:12:52;;;;;;;24.38;8.95;;;;;;;;;;5010285;28;20026;-81
2021/11/08 09:15:18;;;;;;;18.90;8.13;;;;;;;;;;5009535;28;20100;-85
2021/11/08 09:17:45;;;;;;;20.25;8.27;;;;;;;;;;5010145;28;20026;-84
2021/11/08 09:20:11;;;;;;;20.23;8.30;;;;;;;;;;5005841;28;20026;-84
2021/11/08 09:22:37;;;;;;;23.00;8.77;;;;;;;;;;5006880;28;20034;-85
2021/11/08 09:25:05;;;;;;;18.58;8.07;;;4.50;99.90;;;;;;5022932;28;20122;-84
2021/11/08 09:27:31;;;;;;;18.55;8.48;;;;;;;;;;5009476;28;20037;-86
2021/11/08 09:29:57;;;;;;;18.60;8.75;;;;;;;;;;5016685;28;20030;-85
2021/11/08 09:32:23;;;;;;;18.88;8.25;;;;;;;;;;5006009;28;20037;-84
2021/11/08 09:34:50;;;;;;;16.92;8.25;;;;;;;;;;5023866;28;20029;-87
2021/11/08 09:37:18;;;;;;;21.13;8.98;;;;;;;;;;5007649;28;20659;-84
2021/11/08 09:39:44;;;;;;;17.55;7.93;;;;;;;;;;5009963;28;20030;-84
2021/11/08 09:42:12;;;;;;;15.38;7.40;;;5.00;99.90;;;;;;5012855;28;20037;-84
2021/11/08 09:44:39;;;;;;;13.18;6.68;;;5.10;99.90;;;;;;5010016;28;20062;-87
2021/11/08 09:47:05;;;;;;;13.65;6.57;;;;;;;;;;5016436;28;20026;-87
2021/11/08 09:49:33;;;;;;;16.63;6.50;;;5.10;99.90;;;;;;5008556;28;20026;-86
2021/11/08 09:52:00;;;;;;;18.65;7.18;;;5.20;99.90;;;;;;5009113;28;20497;-87
2021/11/08 09:54:28;;;;;;;13.77;7.78;;;5.10;99.90;;;;;;5027265;28;20102;-85
2021/11/08 09:56:57;;;;;;;14.85;7.15;;;5.30;99.90;;;;;;5011584;28;20030;-84
2021/11/08 09:59:23;;;;;;;14.43;6.93;;;;;;;;;;5010959;28;20215;-83
2021/11/08 10:01:55;;;;;;;15.98;7.10;;;5.20;99.90;;;;;;5014295;28;20026;-83
2021/11/08 10:04:22;;;;;;;17.17;7.40;;;;;;;;;;5012004;28;20046;-83
2021/11/08 10:06:49;;;;;;;17.65;6.53;;;5.40;99.90;;;;;;5014427;28;20390;-81
2021/11/08 10:09:19;;;;;;;15.02;6.22;;;5.60;99.90;;;;;;5012576;28;20053;-83
2021/11/08 10:11:46;;;;;;;18.52;7.80;;;5.70;99.90;;;;;;5031456;28;20439;-82
2021/11/08 10:14:14;;;;;;;15.68;7.50;;;5.70;99.90;;;;;;5009636;28;20029;-80
2021/11/08 10:16:41;;;;;;;15.55;7.75;;;5.90;99.90;;;;;;5011851;28;20034;-83
2021/11/08 10:19:10;;;;;;;16.58;8.38;;;6.10;99.90;;;;;;5009786;28;20030;-83
2021/11/08 10:21:44;;;;;;;20.25;9.18;;;6.00;99.90;;;;;;5010628;28;20101;-83
2021/11/08 10:24:17;;;;;;;22.17;11.18;;;6.10;99.90;;;;;;5010897;28;20049;-84
2021/11/08 10:26:43;;;;;;;22.73;9.98;;;6.90;99.90;;;;;;5018592;28;20513;-83
2021/11/08 10:29:17;;;;;;;18.48;9.90;;;6.00;99.90;;;;;;5009175;28;20041;-86
2021/11/08 10:31:50;;;;;;;19.38;10.02;;;6.00;99.90;;;;;;5009732;28;20021;-82
2021/11/08 10:34:17;;;;;;;18.45;9.13;;;6.10;99.90;;;;;;5011928;28;20076;-82
2021/11/08 10:36:45;;;;;;;12.80;7.75;;;6.10;99.90;;;;;;5010407;28;20022;-83
2021/11/08 10:39:15;;;;;;;13.18;6.40;;;6.10;99.90;;;;;;5011954;28;20028;-84
2021/11/08 10:41:43;;;;;;;14.43;7.68;;;6.10;99.90;;;;;;5011120;28;20807;-83
2021/11/08 10:44:17;;;;;;;15.07;7.35;;;6.10;99.90;;;;;;5014571;28;20037;-83
2021/11/08 10:46:48;;;;;;;16.80;7.47;;;6.10;99.90;;;;;;5019288;28;20100;-83
2021/11/08 10:49:20;;;;;;;15.60;7.90;;;6.30;99.90;;;;;;5016170;28;20112;-85
2021/11/08 10:51:50;;;;;;;16.33;8.13;;;7.50;99.90;;;;;;5010593;28;20033;-85
2021/11/08 10:54:22;;;;;;;18.20;9.15;;;6.60;99.90;;;;;;5015437;28;20022;-86
2021/11/08 10:57:05;;;;;;;15.38;8.13;;;6.70;99.90;;;;;;5006691;28;20038;-83
2021/11/08 10:59:44;;;;;;;20.40;10.00;;;6.70;99.90;;;;;;5007666;28;20030;-83
2021/11/08 11:02:13;;;;;;;19.63;9.70;;;6.80;99.90;;;;;;5004456;28;20410;-87
2021/11/08 11:04:47;;;;;;;22.30;11.05;;;6.70;99.90;;;;;;5012753;28;20034;-85
2021/11/08 11:07:25;;;;;;;23.50;11.20;;;6.80;99.90;;;;;;5022294;28;20025;-83
2021/11/08 11:09:59;;;;;;;20.13;10.20;;;6.80;99.90;;;;;;5005923;28;20053;-84
2021/11/08 11:12:27;;;;;;;22.70;11.45;;;6.80;99.90;;;;;;5029125;28;20066;-86
2021/11/08 11:15:03;;;;;;;28.23;12.82;;;6.70;99.90;;;;;;5006694;28;20058;-87
2021/11/08 11:17:38;;;;;;;26.55;13.50;;;6.80;99.90;;;;;;5006160;28;20042;-84
2021/11/08 11:20:18;;;;;;;28.30;13.23;;;6.80;99.90;;;;;;5015234;28;20037;-81
2021/11/08 11:23:00;;;;;;;26.10;12.75;;;6.90;99.90;;;;;;5031134;28;20150;-85
2021/11/08 11:25:28;;;;;;;26.75;13.23;;;7.10;99.90;;;;;;5029800;28;20025;-86
2021/11/08 11:27:54;;;;;;;29.67;13.15;;;8.60;99.90;;;;;;5017341;28;20018;-85
2021/11/08 11:30:26;;;;;;;23.27;12.98;;;7.80;99.90;;;;;;5014079;28;20037;-84
2021/11/08 11:33:10;;;;;;;25.67;12.77;;;7.00;99.90;;;;;;5012437;28;20398;-85
2021/11/08 11:35:46;;;;;;;29.33;12.32;;;7.10;99.90;;;;;;5013453;28;20037;-88
2021/11/08 11:38:36;;;;;;;28.30;12.52;;;7.20;99.90;;;;;;5014246;28;20053;-85
2021/11/08 11:41:13;;;;;;;24.67;12.83;;;7.30;99.90;;;;;;5013437;28;20113;-87
2021/11/08 11:43:43;;;;;;;26.67;11.93;;;7.30;99.90;;;;;;5020227;28;20065;-87
2021/11/08 11:46:20;;;;;;;25.23;12.55;;;7.30;99.90;;;;;;5008060;28;20030;-85
2021/11/08 11:48:46;;;;;;;29.10;12.45;;;7.30;99.90;;;;;;5012769;28;20040;-84
2021/11/08 11:51:21;;;;;;;26.05;12.63;;;7.50;99.90;;;;;;5013687;28;20113;-87
2021/11/08 11:53:47;;;;;;;25.83;13.25;;;7.40;99.90;;;;;;5004910;28;20041;-87
2021/11/08 11:56:14;;;;;;;20.27;11.10;;;7.40;99.90;;;;;;5024886;28;20026;-84
2021/11/08 11:58:41;;;;;;;23.05;12.68;;;;;;;;;;5012483;28;20098;-84
2021/11/08 12:01:10;;;;;;;27.00;13.35;;;7.60;99.90;;;;;;5011949;28;20027;-83
2021/11/08 12:03:36;;;;;;;26.58;13.02;;;7.70;99.90;;;;;;5007841;28;20478;-87
2021/11/08 12:06:02;;;;;;;25.83;12.73;;;7.60;99.90;;;;;;5012716;28;20056;-83
2021/11/08 12:08:36;;;;;;;26.75;13.27;;;8.80;99.90;;;;;;5012132;28;20029;-81
2021/11/08 12:11:02;;;;;;;23.58;12.18;;;8.90;99.90;;;;;;5007800;28;20390;-82
2021/11/08 12:13:29;;;;;;;26.30;13.27;;;;;;;;;;5015021;28;20047;-83
2021/11/08 12:16:09;;;;;;;23.15;12.05;;;7.90;99.90;;;;;;5016835;28;20061;-82
2021/11/08 12:18:35;;;;;;;27.95;13.20;;;7.80;99.90;;;;;;5016675;28;20022;-84
2021/11/08 12:21:01;;;;;;;27.27;12.48;;;;;;;;;;5023041;28;20360;-86
2021/11/08 12:23:31;;;;;;;24.35;11.50;;;;;;;;;;5013111;28;20034;-81
2021/11/08 12:25:58;;;;;;;24.25;11.43;;;7.90;99.90;;;;;;5020611;28;20026;-86
2021/11/08 12:28:30;;;;;;;24.73;12.25;;;7.90;99.90;;;;;;5016245;28;20034;-85
2021/11/08 12:31:06;;;;;;;27.58;14.63;;;8.00;99.90;;;;;;5017853;28;20497;-83
2021/11/08 12:33:37;;;;;;;24.02;13.35;;;8.00;99.90;;;;;;5016168;28;20026;-86
2021/11/08 12:36:06;;;;;;;29.13;12.40;;;7.90;99.90;;;;;;5010889;28;20083;-84
2021/11/08 12:38:44;;;;;;;28.83;14.38;;;8.10;99.90;;;;;;5016263;28;20029;-85
2021/11/08 12:41:21;;;;;;;29.50;12.98;;;8.10;99.90;;;;;;5030540;28;20076;-86
2021/11/08 12:43:59;;;;;;;30.25;14.60;;;8.10;99.90;;;;;;5015393;28;20056;-84
2021/11/08 12:46:35;;;;;;;24.45;12.90;;;8.30;99.90;;;;;;5015539;28;20509;-86
2021/11/08 12:49:07;;;;;;;24.42;13.00;;;8.30;99.90;;;;;;5019010;28;20032;-84
2021/11/08 12:51:33;;;;;;;27.77;14.20;;;8.30;99.90;;;;;;5005677;28;20026;-85
2021/11/08 12:54:09;;;;;;;29.73;13.27;;;8.40;99.90;;;;;;5014446;28;20033;-86
2021/11/08 12:56:42;;;;;;;28.90;14.10;;;8.10;99.90;;;;;;5015669;28;20104;-85
2021/11/08 12:59:30;;;;;;;29.77;14.50;;;8.10;99.90;;;;;;5014253;28;20080;-86
2021/11/08 13:01:59;;;;;;;26.90;12.88;;;8.20;99.90;;;;;;5016008;28;20033;-86
2021/11/08 13:04:40;;;;;;;29.08;13.70;;;8.30;99.90;;;;;;5012750;28;20022;-85
2021/11/08 13:07:09;;;;;;;23.77;12.23;;;8.40;99.90;;;;;;5010512;28;20469;-84
2021/11/08 13:09:42;;;;;;;24.52;11.43;;;8.40;99.90;;;;;;5014493;28;20055;-82
2021/11/08 13:12:34;;;;;;;25.35;12.93;;;8.50;99.90;;;;;;5013651;28;20437;-86
2021/11/08 13:15:05;;;;;;;22.48;11.73;;;8.50;99.90;;;;;;5005467;28;20034;-84
2021/11/08 13:17:32;;;;;;;25.15;13.07;;;8.50;99.90;;;;;;5005682;28;20210;-87
2021/11/08 13:20:05;;;;;;;26.35;13.30;;;10.50;99.90;;;;;;5021160;28;20029;-85
2021/11/08 13:22:43;;;;;;;24.40;12.55;;;8.40;99.90;;;;;;5005966;28;20026;-84
2021/11/08 13:25:12;;;;;;;30.55;11.68;;;;;;;;;;5007952;28;20030;-83
2021/11/08 13:27:45;;;;;;;25.25;12.77;;;8.40;99.90;;;;;;5024741;28;20018;-84
2021/11/08 13:30:11;;;;;;;30.20;13.55;;;;;;;;;;5021748;28;20029;-82
2021/11/08 13:32:37;;;;;;;24.92;12.95;;;8.50;99.90;;;;;;5020261;28;20414;-84
2021/11/08 13:35:26;;;;;;;25.95;12.15;;;8.50;99.90;;;;;;5031775;28;20033;-82
2021/11/08 13:38:12;;;;;;;26.13;12.90;;;8.50;99.90;;;;;;5016327;28;20030;-84
2021/11/08 13:40:49;;;;;;;32.15;12.88;;;8.50;99.90;;;;;;5003019;28;20053;-84
2021/11/08 13:43:27;;;;;;;28.55;12.43;;;8.60;99.90;;;;;;5008340;28;20131;-82
2021/11/08 13:45:57;;;;;;;30.77;14.20;;;9.20;99.90;;;;;;5018144;28;20021;-85
2021/11/08 13:48:40;;;;;;;28.65;13.18;;;8.70;99.90;;;;;;5015429;28;20125;-85
2021/11/08 13:51:26;;;;;;;27.42;13.52;;;8.70;99.90;;;;;;5004597;28;20307;-84
2021/11/08 13:54:04;;;;;;;27.65;13.95;;;8.90;99.90;;;;;;5016450;28;20041;-82
2021/11/08 13:56:34;;;;;;;32.88;14.35;;;8.90;99.90;;;;;;5018067;28;20816;-85
2021/11/08 13:59:02;;;;;;;32.65;13.55;;;9.20;99.90;;;;;;5023376;28;20034;-81
2021/11/08 14:01:31;;;;;;;25.02;11.73;;;9.00;99.90;;;;;;5029021;28;20032;-82
2021/11/08 14:03:57;;;;;;;23.88;10.90;;;9.00;99.90;;;;;;5017812;28;20046;-81
2021/11/08 14:06:27;;;;;;;28.33;12.07;;;9.10;99.90;;;;;;5004669;28;20030;-82
2021/11/08 14:08:53;;;;;;;25.27;11.63;;;10.50;99.90;;;;;;5009400;28;20064;-82
2021/11/08 14:11:32;;;;;;;23.48;10.50;;;9.10;99.90;;;;;;5002114;28;20029;-82
2021/11/08 14:14:04;;;;;;;25.88;10.60;;;9.20;99.90;;;;;;5008827;28;20057;-80
2021/11/08 14:16:30;;;;;;;27.13;11.68;;;;;;;;;;5024322;28;20034;-83
2021/11/08 14:18:57;;;;;;;23.15;10.75;;;9.20;99.90;;;;;;5009812;28;20046;-81
2021/11/08 14:21:24;;;;;;;28.70;10.77;;;9.20;99.90;;;;;;5003706;28;20955;-83
2021/11/08 14:23:57;;;;;;;25.45;9.98;;;9.20;99.90;;;;;;5008580;28;20022;-84
2021/11/08 14:26:27;;;;;;;24.17;9.82;;;9.20;99.90;;;;;;5015441;28;20014;-82
2021/11/08 14:28:53;;;;;;;32.63;11.52;;;9.20;99.90;;;;;;5010550;28;20027;-86
2021/11/08 14:31:27;;;;;;;28.52;10.68;;;9.20;99.90;;;;;;5013454;28;20053;-83
2021/11/08 14:33:56;;;;;;;26.42;9.65;;;9.20;99.90;;;;;;5006407;28;20026;-84
2021/11/08 14:36:25;;;;;;;24.20;9.95;;;9.30;99.90;;;;;;5009923;28;20440;-86
2021/11/08 14:38:59;;;;;;;21.80;9.57;;;11.40;99.90;;;;;;5002503;28;20064;-85
2021/11/08 14:41:32;;;;;;;20.42;9.40;;;9.30;99.90;;;;;;5012148;28;20398;-85